createdAt,value
2023-04-08T00:00:58.139Z,88.53
2023-04-08T00:06:02.696Z,88.61
2023-04-08T00:11:05.764Z,88.56
2023-04-08T00:16:08.163Z,88.64
2023-04-08T00:21:10.785Z,88.38
2023-04-08T00:26:13.116Z,88.34
2023-04-08T00:31:16.602Z,88.14
2023-04-08T00:36:19.234Z,88.28
2023-04-08T00:41:21.929Z,88.38
2023-04-08T00:46:24.776Z,88.59
2023-04-08T00:51:39.080Z,88.42
2023-04-08T00:56:43.644Z,88.26
2023-04-08T01:02:06.808Z,88.46
2023-04-08T01:07:47.970Z,88.66
2023-04-08T01:12:56.555Z,88.41
2023-04-08T01:18:00.801Z,88.42
2023-04-08T01:23:18.561Z,88.43
2023-04-08T01:28:23.878Z,88.33
2023-04-08T01:33:29.446Z,88.40
2023-04-08T01:38:34.102Z,88.33
2023-04-08T01:43:39.600Z,88.28
2023-04-08T01:48:42.945Z,88.26
2023-04-08T01:53:45.801Z,88.08
2023-04-08T01:58:54.856Z,87.92
2023-04-08T02:04:00.697Z,87.77
2023-04-08T02:09:04.327Z,87.88
2023-04-08T02:14:06.668Z,87.86
2023-04-08T02:19:18.914Z,87.92
2023-04-08T02:24:22.313Z,88.09
2023-04-08T02:29:26.487Z,87.77
2023-04-08T02:34:30.894Z,87.55
2023-04-08T02:39:33.534Z,87.45
2023-04-08T02:44:36.483Z,87.41
2023-04-08T02:49:38.790Z,87.21
2023-04-08T02:54:41.941Z,87.36
2023-04-08T02:59:44.368Z,87.04
2023-04-08T03:04:50.607Z,87.15
2023-04-08T03:09:55.158Z,87.15
2023-04-08T03:14:58.073Z,87.06
2023-04-08T03:20:01.857Z,86.92
2023-04-08T03:25:04.575Z,87.00
2023-04-08T03:30:09.170Z,87.09
2023-04-08T03:35:11.830Z,87.18
2023-04-08T03:40:14.159Z,86.76
2023-04-08T03:45:17.363Z,86.84
2023-04-08T03:50:26.475Z,87.03
2023-04-08T03:55:29.207Z,86.90
2023-04-08T04:00:33.806Z,86.89
2023-04-08T04:05:38.112Z,86.92
2023-04-08T04:10:41.138Z,86.81
2023-04-08T04:15:43.951Z,86.98
2023-04-08T04:20:46.350Z,86.77
2023-04-08T04:25:49.169Z,86.64
2023-04-08T04:30:51.454Z,86.72
2023-04-08T04:35:54.511Z,86.69
2023-04-08T04:40:59.008Z,86.63
2023-04-08T04:46:02.488Z,86.53
2023-04-08T04:51:04.742Z,86.46
2023-04-08T04:56:08.315Z,86.29
2023-04-08T05:01:10.652Z,86.39
2023-04-08T05:06:14.152Z,86.36
2023-04-08T05:11:18.453Z,86.25
2023-04-08T05:16:21.105Z,86.15
2023-04-08T05:21:24.072Z,86.18
2023-04-08T05:26:28.140Z,85.91
2023-04-08T05:31:30.516Z,86.04
2023-04-08T05:36:33.528Z,86.31
2023-04-08T05:41:35.619Z,86.30
2023-04-08T05:46:38.882Z,85.86
2023-04-08T05:51:41.160Z,85.92
2023-04-08T05:56:46.472Z,86.10
2023-04-08T06:01:48.805Z,86.00
2023-04-08T06:06:51.485Z,85.74
2023-04-08T06:11:54.173Z,85.61
2023-04-08T06:16:57.761Z,85.40
2023-04-08T06:22:00.023Z,85.25
2023-04-08T06:27:03.417Z,84.98
2023-04-08T06:32:06.534Z,84.95
2023-04-08T06:37:09.204Z,84.78
2023-04-08T06:42:11.401Z,84.89
2023-04-08T06:47:21.693Z,85.22
2023-04-08T06:52:24.499Z,84.90
2023-04-08T06:57:30.122Z,84.92
2023-04-08T07:02:33.035Z,84.62
2023-04-08T07:07:36.831Z,84.16
2023-04-08T07:12:39.322Z,83.71
2023-04-08T07:17:42.973Z,83.40
2023-04-08T07:22:45.446Z,83.62
2023-04-08T07:27:48.014Z,83.54
2023-04-08T07:32:50.954Z,82.89
2023-04-08T07:37:53.914Z,82.87
2023-04-08T07:42:56.647Z,82.95
2023-04-08T07:47:59.040Z,82.82
2023-04-08T07:53:01.266Z,82.75
2023-04-08T07:58:03.947Z,82.19
2023-04-08T08:03:07.340Z,81.93
2023-04-08T08:08:14.094Z,81.34
2023-04-08T08:13:25.749Z,80.89
2023-04-08T08:18:40.220Z,80.72
2023-04-08T08:23:42.918Z,80.15
2023-04-08T08:28:45.400Z,80.29
2023-04-08T08:33:48.425Z,79.34
2023-04-08T08:38:55.362Z,78.58
2023-04-08T08:43:57.404Z,78.89
2023-04-08T08:49:13.245Z,77.90
2023-04-08T08:54:16.197Z,77.03
2023-04-08T08:59:18.763Z,76.92
2023-04-08T09:04:39.958Z,76.79
2023-04-08T09:09:51.724Z,77.00
2023-04-08T09:15:11.025Z,76.28
2023-04-08T09:20:16.470Z,75.67
2023-04-08T09:25:29.546Z,75.46
2023-04-08T09:30:38.734Z,76.02
2023-04-08T09:35:44.382Z,74.62
2023-04-08T09:41:41.751Z,74.27
2023-04-08T09:47:45.018Z,73.68
2023-04-08T09:53:34.331Z,73.73
2023-04-08T10:38:20.333Z,70.31
2023-04-08T10:43:24.205Z,69.26
2023-04-08T10:48:26.884Z,69.66
2023-04-08T10:53:31.092Z,68.76
2023-04-08T10:58:34.653Z,68.46
2023-04-08T11:03:37.958Z,68.85
2023-04-08T11:08:40.904Z,68.16
2023-04-08T11:13:52.592Z,68.61
2023-04-08T11:18:56.943Z,68.32
2023-04-08T11:23:59.249Z,66.76
2023-04-08T11:29:02.704Z,66.75
2023-04-08T11:34:04.558Z,66.81
2023-04-08T11:39:08.843Z,66.34
2023-04-08T11:44:11.512Z,66.17
2023-04-08T11:49:13.742Z,65.17
2023-04-08T11:54:27.769Z,64.85
2023-04-08T11:59:30.097Z,64.73
2023-04-08T12:04:32.447Z,63.81
2023-04-08T12:09:35.086Z,63.23
2023-04-08T12:14:37.870Z,63.38
2023-04-08T12:19:41.184Z,63.80
2023-04-08T12:24:43.160Z,63.88
2023-04-08T12:29:46.292Z,63.72
2023-04-08T12:34:48.215Z,63.70
2023-04-08T12:39:50.551Z,63.52
2023-04-08T12:44:53.222Z,63.22
2023-04-08T12:49:55.754Z,63.08
2023-04-08T12:54:57.942Z,63.28
2023-04-08T13:00:00.160Z,63.81
2023-04-08T13:05:02.536Z,64.21
2023-04-08T13:10:07.076Z,64.93
2023-04-08T13:15:10.362Z,65.68
2023-04-08T13:20:12.766Z,65.90
2023-04-08T13:25:14.659Z,66.48
2023-04-08T13:30:16.857Z,66.72
2023-04-08T13:35:19.410Z,67.44
2023-04-08T13:40:22.282Z,67.90
2023-04-08T13:45:25.329Z,67.89
2023-04-08T13:50:27.429Z,68.14
2023-04-08T13:55:29.385Z,68.44
2023-04-08T14:00:32.995Z,68.71
2023-04-08T14:05:34.938Z,69.40
2023-04-08T14:10:39.196Z,69.64
2023-04-08T14:15:42.197Z,69.69
2023-04-08T14:20:45.221Z,69.43
2023-04-08T14:25:47.697Z,69.53
2023-04-08T14:30:51.245Z,69.90
2023-04-08T14:35:53.876Z,70.47
2023-04-08T14:40:56.519Z,70.63
2023-04-08T14:45:58.421Z,70.81
2023-04-08T14:51:00.645Z,70.68
2023-04-08T14:56:02.618Z,70.88
2023-04-08T15:01:05.272Z,71.10
2023-04-08T15:06:08.265Z,71.22
2023-04-08T15:11:10.955Z,71.23
2023-04-08T15:16:13.281Z,71.49
2023-04-08T15:21:16.679Z,71.43
2023-04-08T15:26:18.773Z,71.52
2023-04-08T15:31:21.294Z,71.82
2023-04-08T15:36:23.476Z,72.00
2023-04-08T15:41:26.367Z,71.74
2023-04-08T15:46:28.283Z,71.85
2023-04-08T15:51:30.307Z,72.14
2023-04-08T15:56:33.709Z,72.58
2023-04-08T16:01:36.296Z,72.68
2023-04-08T16:06:38.456Z,72.96
2023-04-08T16:11:41.822Z,73.11
2023-04-08T16:16:43.847Z,73.14
2023-04-08T16:21:46.461Z,73.15
2023-04-08T16:26:48.409Z,73.30
2023-04-08T16:31:53.181Z,73.78
2023-04-08T16:36:56.873Z,73.80
2023-04-08T16:42:01.090Z,74.01
2023-04-08T16:47:03.169Z,74.44
2023-04-08T16:52:06.242Z,74.22
2023-04-08T16:57:08.431Z,74.49
2023-04-08T17:02:12.696Z,74.71
2023-04-08T17:07:16.127Z,74.83
2023-04-08T17:12:18.371Z,75.11
2023-04-08T17:17:21.043Z,75.40
2023-04-08T17:22:23.127Z,75.50
2023-04-08T17:27:25.034Z,75.75
2023-04-08T17:32:30.174Z,75.86
2023-04-08T17:37:32.045Z,75.85
2023-04-08T17:42:33.916Z,75.98
2023-04-08T17:47:36.156Z,75.93
2023-04-08T17:52:38.240Z,75.78
2023-04-08T17:57:40.177Z,76.38
2023-04-08T18:02:42.926Z,75.95
2023-04-08T18:07:45.462Z,76.16
2023-04-08T18:12:48.986Z,76.22
2023-04-08T18:17:51.448Z,76.04
2023-04-08T18:22:53.920Z,76.37
2023-04-08T18:27:55.910Z,76.27
2023-04-08T18:32:57.863Z,76.48
2023-04-08T18:37:59.909Z,76.59
2023-04-08T18:43:05.653Z,76.54
2023-04-08T18:48:09.528Z,76.64
2023-04-08T18:53:12.536Z,76.78
2023-04-08T18:58:14.724Z,77.12
2023-04-08T19:03:17.492Z,77.32
2023-04-08T19:08:19.502Z,77.04
2023-04-08T19:13:23.534Z,77.31
2023-04-08T19:18:26.096Z,77.55
2023-04-08T19:23:28.807Z,77.77
2023-04-08T19:28:32.414Z,77.30
2023-04-08T19:33:34.375Z,77.68
2023-04-08T19:38:36.343Z,77.54
2023-04-08T19:43:38.477Z,77.92
2023-04-08T19:48:40.507Z,78.34
2023-04-08T19:53:43.114Z,78.09
2023-04-08T19:58:45.041Z,78.17
2023-04-08T20:03:50.539Z,78.17
2023-04-08T20:08:53.667Z,78.26
2023-04-08T20:13:56.513Z,78.38
2023-04-08T20:18:58.588Z,78.70
2023-04-08T20:24:01.212Z,78.61
2023-04-08T20:29:03.144Z,78.87
2023-04-08T20:34:05.203Z,79.19
2023-04-08T20:39:10.821Z,78.86
2023-04-08T20:44:13.280Z,79.14
2023-04-08T20:49:18.771Z,79.14
2023-04-08T20:54:21.828Z,79.35
2023-04-08T20:59:23.752Z,79.36
2023-04-08T21:04:25.967Z,79.26
2023-04-08T21:09:28.621Z,79.68
2023-04-08T21:14:38.161Z,79.73
2023-04-08T21:19:40.237Z,80.02
2023-04-08T21:24:43.173Z,79.79
2023-04-08T21:29:45.287Z,80.12
2023-04-08T21:34:56.735Z,80.13
2023-04-08T21:39:58.679Z,80.39
2023-04-08T21:45:02.265Z,80.49
2023-04-08T21:50:08.161Z,80.61
2023-04-08T21:55:30.567Z,80.45
2023-04-08T22:00:32.559Z,80.54
2023-04-08T22:05:36.079Z,80.70
2023-04-08T22:10:38.171Z,81.00
2023-04-08T22:15:40.742Z,81.09
2023-04-08T22:20:43.317Z,80.97
2023-04-08T22:25:51.934Z,81.20
2023-04-08T22:30:55.416Z,81.39
2023-04-08T22:35:57.824Z,81.71
2023-04-08T22:41:00.893Z,81.65
2023-04-08T22:46:03.186Z,81.94
2023-04-08T22:51:05.548Z,82.46
2023-04-08T22:56:07.794Z,82.52
2023-04-08T23:01:18.590Z,82.22
2023-04-08T23:06:20.640Z,82.22
2023-04-08T23:11:42.467Z,82.39
2023-04-08T23:16:45.536Z,82.63
2023-04-08T23:21:47.525Z,82.76
2023-04-08T23:26:50.273Z,82.93
2023-04-08T23:31:54.473Z,82.97
2023-04-08T23:36:56.414Z,83.03
2023-04-08T23:41:58.878Z,83.04
2023-04-08T23:47:02.063Z,83.22
2023-04-08T23:52:06.319Z,83.42
2023-04-08T23:57:08.363Z,83.73
